Time;durP1;ratioP1;P1;durP2;ratioP2;P2;SDS_P1;SDS_P2;PMS_P1;PMS_P2;Temp;Humidity;BMP_temperature;BMP_pressure;BME280_temperature;BME280_humidity;BME280_pressure;Samples;Min_cycle;Max_cycle;Signal;HPM_P1;HPM_P2
2023/10/09 00:02:12;;;;;;;9.45;4.00;;;14.20;99.90;;;;;;5095952;28;20128;-65
2023/10/09 00:04:41;;;;;;;9.88;4.63;;;14.20;99.90;;;;;;5080849;28;20119;-65
2023/10/09 00:07:08;;;;;;;10.10;4.53;;;14.20;99.90;;;;;;5088843;28;20055;-65
2023/10/09 00:09:46;;;;;;;11.43;4.25;;;14.20;99.90;;;;;;5083127;28;20711;-64
2023/10/09 00:12:22;;;;;;;11.95;4.78;;;14.20;99.90;;;;;;5086712;28;20055;-64
2023/10/09 00:14:50;;;;;;;10.93;4.68;;;14.20;99.90;;;;;;5085406;28;20052;-64
2023/10/09 00:17:19;;;;;;;12.88;5.00;;;14.20;99.90;;;;;;5086380;28;20044;-65
2023/10/09 00:19:49;;;;;;;15.43;5.80;;;14.20;99.90;;;;;;5088565;28;20447;-64
2023/10/09 00:25:09;;;;;;;12.23;5.70;;;14.20;99.90;;;;;;5090971;28;20052;-64
2023/10/09 00:27:36;;;;;;;16.73;5.53;;;14.20;99.90;;;;;;5086080;28;20116;-65
2023/10/09 00:30:06;;;;;;;13.88;5.72;;;14.20;99.90;;;;;;5085306;28;20379;-64
2023/10/09 00:32:33;;;;;;;19.25;6.40;;;14.20;99.90;;;;;;5086153;28;20381;-64
2023/10/09 00:35:36;;;;;;;19.55;6.40;;;14.20;99.90;;;;;;5084387;28;20684;-65
2023/10/09 00:37:45;;;;;;;16.98;6.75;;;14.20;99.90;;;;;;5085045;28;20040;-65
2023/10/09 00:40:22;;;;;;;16.55;6.80;;;14.20;99.90;;;;;;5085080;28;20048;-65
2023/10/09 00:42:48;;;;;;;17.55;7.13;;;14.20;99.90;;;;;;5080871;28;20098;-65
2023/10/09 00:45:24;;;;;;;20.02;6.55;;;14.20;99.90;;;;;;5094464;28;20107;-64
2023/10/09 00:47:57;;;;;;;19.98;7.75;;;14.20;99.90;;;;;;5092541;28;20052;-64
2023/10/09 00:50:23;;;;;;;20.83;9.02;;;14.20;99.90;;;;;;5069790;28;20058;-65
2023/10/09 00:53:05;;;;;;;21.02;8.68;;;14.20;99.90;;;;;;5082714;28;20039;-65
2023/10/09 00:55:45;;;;;;;21.50;9.30;;;14.20;99.90;;;;;;5085798;28;20393;-64
2023/10/09 00:58:23;;;;;;;24.13;10.27;;;14.20;99.90;;;;;;5086868;28;20040;-65
2023/10/09 01:00:52;;;;;;;25.48;11.48;;;14.20;99.90;;;;;;5081051;28;20055;-64
2023/10/09 01:03:20;;;;;;;26.02;11.38;;;14.20;99.90;;;;;;5085870;28;20075;-65
2023/10/09 01:05:52;;;;;;;25.23;11.18;;;14.20;99.90;;;;;;5091923;28;20036;-64
2023/10/09 01:09:10;;;;;;;25.77;12.02;;;14.20;99.90;;;;;;5084673;28;20361;-64
2023/10/09 01:11:18;;;;;;;25.52;10.68;;;14.20;99.90;;;;;;5079792;28;20404;-65
2023/10/09 01:16:17;;;;;;;23.90;11.07;;;14.30;99.90;;;;;;5087208;28;20424;-64
2023/10/09 01:18:44;;;;;;;26.10;11.45;;;14.40;99.90;;;;;;5084037;28;20039;-64
2023/10/09 01:21:14;;;;;;;29.60;12.77;;;14.30;99.90;;;;;;5087507;28;20040;-66
2023/10/09 01:24:03;;;;;;;26.65;12.27;;;14.30;99.90;;;;;;5067917;28;20043;-64
2023/10/09 01:26:39;;;;;;;25.02;11.18;;;14.30;99.90;;;;;;5085687;28;20051;-64
2023/10/09 01:29:14;;;;;;;28.50;11.10;;;14.30;99.90;;;;;;5084677;28;20131;-65
2023/10/09 01:31:56;;;;;;;23.70;10.88;;;14.30;99.90;;;;;;5085155;28;20044;-64
2023/10/09 01:34:41;;;;;;;30.38;11.90;;;14.30;99.90;;;;;;5071106;28;20049;-64
2023/10/09 01:37:18;;;;;;;26.20;12.55;;;14.30;99.90;;;;;;5078137;28;20055;-64
2023/10/09 01:39:52;;;;;;;26.73;12.52;;;14.30;99.90;;;;;;5081761;28;20048;-65
2023/10/09 01:42:34;;;;;;;23.52;12.57;;;14.30;99.90;;;;;;5088807;28;20485;-64
2023/10/09 01:47:38;;;;;;;27.65;13.65;;;14.30;99.90;;;;;;5085534;28;20135;-64
2023/10/09 01:50:09;;;;;;;28.95;12.82;;;14.30;99.90;;;;;;5070316;28;20113;-64
2023/10/09 01:52:37;;;;;;;28.38;14.25;;;14.30;99.90;;;;;;5084919;28;20126;-64
2023/10/09 01:55:27;;;;;;;29.13;12.95;;;14.30;99.90;;;;;;5067526;28;20048;-65
2023/10/09 01:57:48;;;;;;;24.33;13.02;;;14.30;99.90;;;;;;5092192;28;20040;-65
2023/10/09 02:00:22;;;;;;;30.55;14.35;;;14.30;99.90;;;;;;5087664;28;20385;-64
2023/10/09 02:02:50;;;;;;;30.15;13.93;;;14.30;99.90;;;;;;5091262;28;20078;-65
2023/10/09 02:07:51;;;;;;;29.95;13.98;;;14.30;99.90;;;;;;5089134;28;20246;-65
2023/10/09 02:10:25;;;;;;;29.38;15.05;;;14.30;99.90;;;;;;5085139;28;20032;-65
2023/10/09 02:13:10;;;;;;;31.92;16.05;;;14.30;99.90;;;;;;5090094;28;20072;-65
2023/10/09 02:15:40;;;;;;;33.70;17.25;;;14.30;99.90;;;;;;5090692;28;20717;-65
2023/10/09 02:18:19;;;;;;;34.97;16.48;;;14.30;99.90;;;;;;5091280;28;20044;-64
2023/10/09 02:26:26;;;;;;;34.20;18.98;;;14.40;99.90;;;;;;5086983;28;20139;-65
2023/10/09 02:29:08;;;;;;;42.25;21.65;;;14.40;99.90;;;;;;5090901;28;20458;-65
2023/10/09 02:31:40;;;;;;;36.63;18.55;;;14.40;99.90;;;;;;5086999;28;20054;-65
2023/10/09 02:34:10;;;;;;;35.13;19.73;;;14.40;99.90;;;;;;5087045;28;20085;-64
2023/10/09 02:36:43;;;;;;;34.17;19.30;;;14.40;99.90;;;;;;5090301;28;20378;-65
2023/10/09 02:39:23;;;;;;;36.10;19.98;;;14.40;99.90;;;;;;5086335;28;20047;-65
2023/10/09 02:42:06;;;;;;;43.80;20.05;;;14.40;99.90;;;;;;5085598;28;20040;-65
2023/10/09 02:44:39;;;;;;;40.40;21.02;;;14.40;99.90;;;;;;5068329;28;20068;-65
2023/10/09 02:47:11;;;;;;;35.65;19.83;;;14.40;99.90;;;;;;5085116;28;20048;-64
2023/10/09 02:49:40;;;;;;;37.33;20.13;;;14.40;99.90;;;;;;5087102;28;20081;-66
2023/10/09 02:52:10;;;;;;;36.60;20.25;;;14.40;99.90;;;;;;5086028;28;20508;-66
2023/10/09 02:54:41;;;;;;;43.93;22.20;;;14.40;99.90;;;;;;5085459;28;20163;-65
2023/10/09 02:57:07;;;;;;;39.33;19.95;;;14.40;99.90;;;;;;5090280;28;20342;-66
2023/10/09 02:59:41;;;;;;;40.92;21.58;;;14.40;99.90;;;;;;5086906;28;20047;-66
2023/10/09 03:02:07;;;;;;;41.03;21.77;;;14.50;99.90;;;;;;5090068;28;20044;-66
2023/10/09 03:04:33;;;;;;;39.20;21.02;;;14.50;99.90;;;;;;5088296;28;20456;-66
2023/10/09 03:07:00;;;;;;;38.97;21.48;;;14.50;99.90;;;;;;5095019;28;20374;-66
2023/10/09 03:09:26;;;;;;;48.15;22.92;;;14.60;99.90;;;;;;5085877;28;20040;-66
2023/10/09 03:11:54;;;;;;;39.20;21.98;;;14.60;99.90;;;;;;5090997;28;20480;-66
2023/10/09 03:14:20;;;;;;;42.70;22.00;;;14.50;99.90;;;;;;5085962;28;20101;-67
2023/10/09 03:16:50;;;;;;;43.50;22.92;;;14.60;99.90;;;;;;5083375;28;20039;-65
2023/10/09 03:19:16;;;;;;;39.65;22.38;;;14.60;99.90;;;;;;5087503;28;20071;-66
2023/10/09 03:21:46;;;;;;;38.42;22.08;;;14.60;99.90;;;;;;5091576;28;20044;-65
2023/10/09 03:24:12;;;;;;;46.28;22.88;;;14.70;99.90;;;;;;5086644;28;20113;-65
2023/10/09 03:26:38;;;;;;;43.17;22.73;;;14.60;99.90;;;;;;5092459;28;20115;-66
2023/10/09 03:29:09;;;;;;;47.35;24.33;;;14.60;99.90;;;;;;5086082;28;20143;-66
2023/10/09 03:31:38;;;;;;;40.10;22.42;;;14.60;99.90;;;;;;5089923;28;20044;-66
2023/10/09 03:34:05;;;;;;;43.50;22.63;;;14.70;99.90;;;;;;5069650;28;20124;-65
2023/10/09 03:36:37;;;;;;;42.92;22.33;;;14.70;99.90;;;;;;5091579;28;20040;-66
2023/10/09 03:39:07;;;;;;;41.42;21.52;;;14.70;99.90;;;;;;5086597;28;20062;-66
2023/10/09 03:41:40;;;;;;;38.28;21.55;;;14.80;99.90;;;;;;5083863;28;20711;-66
2023/10/09 03:44:06;;;;;;;37.00;21.33;;;14.80;99.90;;;;;;5079117;28;20151;-65
2023/10/09 03:46:33;;;;;;;40.17;21.27;;;14.70;99.90;;;;;;5085303;28;20086;-66
2023/10/09 03:49:02;;;;;;;43.83;22.77;;;14.80;99.90;;;;;;5086134;28;20059;-65
2023/10/09 03:51:29;;;;;;;40.75;20.88;;;14.80;99.90;;;;;;5085704;28;20059;-66
2023/10/09 03:53:55;;;;;;;42.53;21.45;;;14.80;99.90;;;;;;5087728;28;20088;-64
2023/10/09 03:56:21;;;;;;;39.05;21.13;;;14.90;99.90;;;;;;5065426;28;20044;-63
2023/10/09 03:58:51;;;;;;;38.75;20.77;;;14.90;99.90;;;;;;5082301;28;20039;-64
2023/10/09 04:01:24;;;;;;;36.40;21.47;;;14.90;99.90;;;;;;5069565;28;20513;-63
2023/10/09 04:04:03;;;;;;;44.75;22.13;;;15.00;99.90;;;;;;5072420;28;20044;-64
2023/10/09 04:06:32;;;;;;;40.90;22.83;;;15.00;99.90;;;;;;5077284;28;20959;-64
2023/10/09 04:11:47;;;;;;;41.05;22.52;;;15.10;99.90;;;;;;5077302;28;20535;-64
2023/10/09 04:14:34;;;;;;;39.80;21.95;;;15.10;99.90;;;;;;5071498;28;20047;-64
2023/10/09 04:17:32;;;;;;;37.85;21.52;;;15.10;99.90;;;;;;5072008;28;20067;-66
2023/10/09 04:25:25;;;;;;;34.70;20.38;;;15.20;99.90;;;;;;5070506;28;20059;-64
2023/10/09 04:30:43;;;;;;;38.00;19.52;;;15.20;99.90;;;;;;5072455;28;20149;-64
2023/10/09 04:33:28;;;;;;;40.60;19.60;;;15.20;99.90;;;;;;5073435;28;20068;-64
2023/10/09 04:41:51;;;;;;;36.45;18.75;;;15.20;99.90;;;;;;5077636;28;20067;-64
2023/10/09 04:44:24;;;;;;;36.33;17.52;;;15.20;99.90;;;;;;5086665;28;20059;-64
2023/10/09 04:50:01;;;;;;;31.63;16.95;;;15.30;99.90;;;;;;5068853;28;20094;-64
2023/10/09 05:03:10;;;;;;;27.17;15.93;;;15.30;99.90;;;;;;5102006;28;20564;-64
2023/10/09 05:08:28;;;;;;;25.65;14.73;;;15.30;99.90;;;;;;5091135;28;20050;-64
2023/10/09 05:16:13;;;;;;;23.38;12.68;;;15.30;99.90;;;;;;5073980;28;20408;-64
2023/10/09 05:18:55;;;;;;;25.55;11.13;;;15.40;99.90;;;;;;5071830;28;20063;-66
2023/10/09 05:24:15;;;;;;;22.40;11.00;;;15.40;99.90;;;;;;5102472;28;20156;-66
2023/10/09 05:32:03;;;;;;;21.83;9.38;;;15.50;99.90;;;;;;5119003;27;20065;-66
2023/10/09 05:37:17;;;;;;;19.58;9.00;;;15.50;99.90;;;;;;5085562;28;20044;-66
2023/10/09 05:40:21;;;;;;;23.55;9.63;;;15.50;99.90;;;;;;5079583;28;20093;-66
2023/10/09 05:47:53;;;;;;;;;;;15.60;99.90;;;;;;5080994;28;20553;-66
2023/10/09 06:14:12;;;;;;;18.27;8.68;;;15.70;99.90;;;;;;5077958;28;20112;-67
2023/10/09 06:19:42;;;;;;;20.05;8.18;;;15.70;99.90;;;;;;5092151;28;20081;-67
2023/10/09 06:24:54;;;;;;;22.50;8.95;;;15.80;99.90;;;;;;5079533;28;21172;-67
2023/10/09 06:32:50;;;;;;;22.42;8.32;;;15.80;99.90;;;;;;5076913;28;20055;-68
2023/10/09 06:35:23;;;;;;;28.92;8.48;;;15.80;99.90;;;;;;5089905;28;20055;-68
2023/10/09 06:38:21;;;;;;;17.33;7.72;;;15.80;99.90;;;;;;5086321;28;20043;-69
2023/10/09 06:56:29;;;;;;;19.80;8.23;;;15.90;99.90;;;;;;5067173;28;20056;-69
2023/10/09 06:59:41;;;;;;;23.52;8.60;;;15.80;99.90;;;;;;5068697;28;20070;-69
2023/10/09 07:02:25;;;;;;;18.30;8.15;;;15.80;99.90;;;;;;5066993;28;20050;-69
2023/10/09 07:04:54;;;;;;;19.23;7.85;;;15.90;99.90;;;;;;5071734;28;20036;-69
2023/10/09 07:07:24;;;;;;;23.00;8.23;;;15.80;99.90;;;;;;5070295;28;20045;-69
2023/10/09 07:12:44;;;;;;;19.38;8.35;;;15.90;99.90;;;;;;5049976;28;20063;-69
2023/10/09 07:20:13;;;;;;;22.90;8.40;;;15.90;99.90;;;;;;5070811;28;20093;-70
2023/10/09 07:22:52;;;;;;;23.85;8.15;;;15.90;99.90;;;;;;5065055;28;20063;-69
2023/10/09 07:28:18;;;;;;;24.33;7.82;;;15.90;99.90;;;;;;5064527;28;20144;-70
2023/10/09 07:30:47;;;;;;;25.45;9.00;;;15.90;99.90;;;;;;5073472;28;20052;-69
2023/10/09 07:35:57;;;;;;;18.77;7.72;;;15.90;99.90;;;;;;5082869;28;20056;-69
2023/10/09 07:38:29;;;;;;;19.85;8.52;;;15.90;99.90;;;;;;5082832;28;20121;-70
2023/10/09 07:46:32;;;;;;;20.20;8.32;;;15.90;99.90;;;;;;5084606;28;20143;-70
2023/10/09 07:49:08;;;;;;;18.77;7.90;;;15.90;99.90;;;;;;5080692;28;20550;-70
2023/10/09 07:51:36;;;;;;;21.73;7.88;;;15.90;99.90;;;;;;5075755;28;20046;-70
2023/10/09 07:54:14;;;;;;;16.80;6.97;;;16.00;99.90;;;;;;5074920;28;21605;-70
2023/10/09 07:56:41;;;;;;;18.27;7.85;;;16.00;99.90;;;;;;5072054;28;20071;-70
2023/10/09 07:59:10;;;;;;;20.75;8.27;;;15.90;99.90;;;;;;5071508;28;20129;-70
2023/10/09 08:01:54;;;;;;;21.63;7.95;;;16.00;99.90;;;;;;5086806;28;20040;-70
2023/10/09 08:04:37;;;;;;;17.70;8.02;;;16.00;99.90;;;;;;5090337;28;20044;-70
2023/10/09 08:07:09;;;;;;;16.30;7.90;;;16.00;99.90;;;;;;5077250;28;20397;-70
2023/10/09 08:09:47;;;;;;;24.13;8.23;;;16.00;99.90;;;;;;5081033;28;20051;-70
2023/10/09 08:18:27;;;;;;;22.90;8.48;;;15.90;99.90;;;;;;5069840;28;20130;-70
2023/10/09 08:23:29;;;;;;;19.70;7.68;;;16.10;99.90;;;;;;5073870;28;20128;-70
2023/10/09 08:26:13;;;;;;;25.92;7.90;;;16.10;99.90;;;;;;5091469;28;20074;-70
2023/10/09 08:28:43;;;;;;;26.67;7.95;;;16.10;99.90;;;;;;5085965;28;20043;-70
2023/10/09 08:31:34;;;;;;;20.75;7.68;;;16.10;99.90;;;;;;5077753;28;20040;-70
2023/10/09 08:34:01;;;;;;;23.60;7.45;;;16.10;99.90;;;;;;5081485;28;20131;-70
2023/10/09 08:36:36;;;;;;;17.13;7.43;;;16.10;99.90;;;;;;5066115;28;20055;-69
2023/10/09 08:39:17;;;;;;;17.73;6.57;;;16.20;99.90;;;;;;5078722;28;20121;-69
2023/10/09 08:41:43;;;;;;;20.10;7.95;;;16.10;99.90;;;;;;5074960;28;20040;-69
2023/10/09 08:44:14;;;;;;;24.73;6.95;;;16.10;99.90;;;;;;5115507;27;20101;-70
2023/10/09 08:46:42;;;;;;;20.95;8.10;;;16.10;99.90;;;;;;5077491;28;20149;-70
2023/10/09 08:49:10;;;;;;;19.77;7.60;;;16.10;99.90;;;;;;5080385;28;20080;-70
2023/10/09 08:51:37;;;;;;;22.20;7.85;;;16.10;99.90;;;;;;5081226;28;20547;-70
2023/10/09 08:54:04;;;;;;;19.20;6.97;;;16.10;99.90;;;;;;5079587;28;20052;-69
2023/10/09 08:56:30;;;;;;;17.15;6.97;;;16.20;99.90;;;;;;5077094;28;20079;-69
2023/10/09 08:58:59;;;;;;;20.63;7.28;;;16.20;99.90;;;;;;5073911;28;20225;-70
2023/10/09 09:01:25;;;;;;;23.25;8.48;;;16.20;99.90;;;;;;5103583;27;20059;-70
2023/10/09 09:03:55;;;;;;;21.58;7.88;;;16.20;99.90;;;;;;5087844;28;20128;-70
2023/10/09 09:06:23;;;;;;;15.93;7.05;;;16.20;99.90;;;;;;5077946;28;20040;-70
2023/10/09 09:08:54;;;;;;;19.98;7.45;;;16.30;99.90;;;;;;5071305;28;20060;-70
2023/10/09 09:11:24;;;;;;;18.88;7.43;;;16.20;99.90;;;;;;5070415;28;20053;-69
2023/10/09 09:14:02;;;;;;;18.65;7.22;;;16.30;99.90;;;;;;5078895;28;20530;-69
2023/10/09 09:16:30;;;;;;;17.70;7.40;;;16.30;99.90;;;;;;5082558;28;20803;-69
2023/10/09 09:21:45;;;;;;;25.05;7.13;;;16.30;99.90;;;;;;5113764;27;20051;-69
2023/10/09 09:27:09;;;;;;;21.52;7.25;;;16.30;99.90;;;;;;5088397;28;20474;-69
2023/10/09 09:29:39;;;;;;;19.75;6.47;;;16.30;99.90;;;;;;5092318;28;20076;-69
2023/10/09 09:32:19;;;;;;;17.20;7.35;;;16.40;99.90;;;;;;5079870;28;20629;-70
2023/10/09 09:34:55;;;;;;;15.75;6.28;;;16.30;99.90;;;;;;5080517;28;20063;-69
2023/10/09 09:37:33;;;;;;;23.23;6.65;;;16.40;99.90;;;;;;5090562;28;20040;-69
2023/10/09 09:40:01;;;;;;;14.30;6.15;;;16.50;99.90;;;;;;5080370;28;20386;-69
2023/10/09 09:42:32;;;;;;;21.83;6.32;;;16.40;99.90;;;;;;5080345;28;20437;-69
2023/10/09 09:45:01;;;;;;;20.63;6.13;;;16.50;99.90;;;;;;5085298;28;20052;-69
2023/10/09 09:47:27;;;;;;;19.95;5.68;;;16.50;99.90;;;;;;5091202;28;20574;-69
2023/10/09 09:50:11;;;;;;;18.75;6.72;;;16.50;99.90;;;;;;5086843;28;20048;-69
2023/10/09 09:52:40;;;;;;;22.23;6.10;;;16.60;99.90;;;;;;5080175;28;20462;-69
2023/10/09 09:55:17;;;;;;;20.55;6.45;;;16.60;99.90;;;;;;5116474;27;20039;-69
2023/10/09 09:57:51;;;;;;;16.05;5.65;;;16.60;99.90;;;;;;5113670;27;20056;-69
2023/10/09 10:03:12;;;;;;;19.77;5.55;;;16.60;99.90;;;;;;5085643;28;20044;-69
2023/10/09 10:05:41;;;;;;;17.85;5.93;;;16.60;99.90;;;;;;5077940;28;20439;-69
2023/10/09 10:08:12;;;;;;;18.45;5.45;;;16.60;99.90;;;;;;5082375;28;20043;-70
2023/10/09 10:10:52;;;;;;;16.00;5.60;;;16.60;99.90;;;;;;5082266;28;20420;-69
2023/10/09 10:13:41;;;;;;;17.05;5.47;;;16.60;99.90;;;;;;5094288;28;20102;-69
2023/10/09 10:16:20;;;;;;;15.40;5.80;;;16.60;99.90;;;;;;5086533;28;20055;-69
2023/10/09 10:19:32;;;;;;;21.35;5.53;;;16.70;99.90;;;;;;5066846;28;20094;-69
2023/10/09 10:21:53;;;;;;;15.02;5.22;;;16.70;99.90;;;;;;5082737;28;20092;-69
2023/10/09 10:24:28;;;;;;;18.13;5.93;;;16.70;99.90;;;;;;5062892;28;20051;-66
2023/10/09 10:27:26;;;;;;;16.02;5.68;;;16.70;99.90;;;;;;5070257;28;20044;-66
2023/10/09 10:30:33;;;;;;;17.50;5.18;;;16.70;99.90;;;;;;5077107;28;20143;-66
2023/10/09 10:33:09;;;;;;;20.08;5.47;;;16.70;99.90;;;;;;5066648;28;20099;-68
2023/10/09 10:35:55;;;;;;;22.40;5.22;;;16.70;99.90;;;;;;5066942;28;20070;-68
2023/10/09 10:38:25;;;;;;;20.23;5.90;;;16.70;99.90;;;;;;5083798;28;20048;-68
2023/10/09 10:40:57;;;;;;;23.00;5.60;;;16.70;99.90;;;;;;5089685;28;20048;-69
2023/10/09 10:43:34;;;;;;;19.98;5.88;;;16.70;99.90;;;;;;5071818;28;20101;-68
2023/10/09 10:49:36;;;;;;;16.02;5.35;;;16.70;99.90;;;;;;5110473;27;20048;-68
2023/10/09 10:52:01;;;;;;;17.85;5.65;;;16.80;99.90;;;;;;5084266;28;20048;-68
2023/10/09 10:54:45;;;;;;;22.80;5.70;;;16.80;99.90;;;;;;5083541;28;20072;-69
2023/10/09 10:57:19;;;;;;;26.35;5.40;;;16.80;99.90;;;;;;5082524;28;20036;-68
2023/10/09 10:59:45;;;;;;;19.95;5.60;;;16.80;99.90;;;;;;5078558;28;20054;-69
2023/10/09 11:04:40;;;;;;;20.65;5.70;;;16.80;99.90;;;;;;5082834;28;20081;-69
2023/10/09 11:12:42;;;;;;;16.95;5.75;;;16.80;99.90;;;;;;5083079;28;20106;-69
2023/10/09 11:15:29;;;;;;;24.63;5.65;;;16.80;99.90;;;;;;5084451;28;20389;-69
2023/10/09 11:28:57;;;;;;;14.65;4.45;;;16.70;99.90;;;;;;5080826;28;20109;-68
2023/10/09 11:31:23;;;;;;;17.42;4.68;;;16.70;99.90;;;;;;5077474;28;20054;-68
2023/10/09 11:33:53;;;;;;;21.42;5.15;;;16.70;99.90;;;;;;5079992;28;21927;-68
2023/10/09 11:36:31;;;;;;;20.50;4.60;;;16.70;99.90;;;;;;5082886;28;20062;-68
2023/10/09 11:39:13;;;;;;;14.15;3.97;;;16.70;99.90;;;;;;5084485;28;20052;-68
2023/10/09 11:41:42;;;;;;;14.05;3.45;;;16.70;99.90;;;;;;5106893;27;20780;-68
2023/10/09 11:44:33;;;;;;;13.27;3.88;;;16.70;99.90;;;;;;5088693;28;20048;-68
2023/10/09 11:49:56;;;;;;;16.55;4.78;;;16.70;99.90;;;;;;5084856;28;21476;-67
2023/10/09 11:55:00;;;;;;;19.48;4.15;;;16.70;99.90;;;;;;5069559;28;20065;-69
2023/10/09 11:57:36;;;;;;;14.50;3.58;;;16.80;99.90;;;;;;5091651;28;20044;-68
2023/10/09 12:02:49;;;;;;;13.15;3.60;;;16.80;99.90;;;;;;5088696;28;20155;-68
2023/10/09 12:05:16;;;;;;;15.52;3.60;;;16.80;99.90;;;;;;5086399;28;20044;-68
2023/10/09 12:07:46;;;;;;;15.00;3.65;;;16.80;99.90;;;;;;5080434;28;20055;-67
2023/10/09 12:10:14;;;;;;;15.88;3.83;;;16.80;99.90;;;;;;5092036;28;20040;-68
2023/10/09 12:12:46;;;;;;;13.50;3.20;;;16.80;99.90;;;;;;5078645;28;20784;-68
2023/10/09 12:15:17;;;;;;;12.85;2.92;;;16.90;99.90;;;;;;5082577;28;20216;-68
2023/10/09 12:17:47;;;;;;;15.45;3.90;;;16.90;99.90;;;;;;5058757;28;20048;-68
2023/10/09 12:20:32;;;;;;;12.13;3.38;;;16.90;99.90;;;;;;5045083;28;20048;-68
2023/10/09 12:23:06;;;;;;;16.05;3.20;;;16.90;99.90;;;;;;5059272;28;20428;-67
2023/10/09 12:25:33;;;;;;;20.67;4.20;;;16.90;99.90;;;;;;5067495;28;20108;-68
2023/10/09 12:28:03;;;;;;;17.08;3.72;;;16.90;99.90;;;;;;5069827;28;20060;-68
2023/10/09 12:30:39;;;;;;;13.95;3.20;;;16.90;99.90;;;;;;5087407;28;20121;-68
2023/10/09 12:33:07;;;;;;;14.55;3.70;;;17.00;99.90;;;;;;5077325;28;20044;-68
2023/10/09 12:35:37;;;;;;;14.70;3.35;;;17.00;99.90;;;;;;5080290;28;20051;-68
2023/10/09 12:38:08;;;;;;;11.77;2.90;;;17.00;99.90;;;;;;5083156;28;20530;-69
2023/10/09 12:40:34;;;;;;;10.52;2.50;;;17.00;99.90;;;;;;5077361;28;20649;-69
2023/10/09 12:43:00;;;;;;;10.73;2.80;;;17.00;99.90;;;;;;5070133;28;20048;-68
2023/10/09 12:45:27;;;;;;;10.23;2.55;;;17.00;99.90;;;;;;5063087;28;20047;-69
2023/10/09 12:47:58;;;;;;;11.52;2.60;;;17.00;99.90;;;;;;5073063;28;20054;-69
2023/10/09 12:50:27;;;;;;;10.65;2.83;;;17.00;99.90;;;;;;5080454;28;20420;-68
2023/10/09 12:53:01;;;;;;;10.85;2.90;;;17.00;99.90;;;;;;5074434;28;20068;-68
2023/10/09 12:55:33;;;;;;;11.32;2.97;;;17.00;99.90;;;;;;5093600;28;20135;-69
2023/10/09 12:58:06;;;;;;;10.82;2.72;;;17.00;99.90;;;;;;5068596;28;20043;-69
2023/10/09 13:00:48;;;;;;;11.98;3.10;;;17.10;99.90;;;;;;5068438;28;20040;-68
2023/10/09 13:03:18;;;;;;;12.68;2.70;;;17.10;99.90;;;;;;5059134;28;20053;-69
2023/10/09 13:05:52;;;;;;;18.08;3.20;;;17.10;99.90;;;;;;5072977;28;20114;-69
2023/10/09 13:08:34;;;;;;;10.82;2.50;;;17.10;99.90;;;;;;5082549;28;20117;-68
2023/10/09 13:11:11;;;;;;;14.07;2.60;;;17.10;99.90;;;;;;5086992;28;20127;-69
2023/10/09 13:13:42;;;;;;;8.70;2.65;;;17.10;99.90;;;;;;5076288;28;20048;-68
2023/10/09 13:16:24;;;;;;;12.95;2.63;;;17.10;99.90;;;;;;5081799;28;20105;-69
2023/10/09 13:18:59;;;;;;;7.53;2.33;;;17.10;99.90;;;;;;5060061;28;20085;-70
2023/10/09 13:21:31;;;;;;;11.30;2.92;;;17.10;99.90;;;;;;5062883;28;20043;-69
2023/10/09 13:23:57;;;;;;;9.43;2.65;;;17.10;99.90;;;;;;5076241;28;20045;-69
2023/10/09 13:26:28;;;;;;;10.63;3.00;;;17.10;99.90;;;;;;5062816;28;20513;-68
2023/10/09 13:28:54;;;;;;;12.13;2.70;;;17.10;99.90;;;;;;5053043;28;20040;-69
2023/10/09 13:31:25;;;;;;;9.40;3.45;;;17.10;99.90;;;;;;5068100;28;20048;-69
2023/10/09 13:33:54;;;;;;;12.75;3.13;;;17.10;99.90;;;;;;5084411;28;20146;-68
2023/10/09 13:36:31;;;;;;;11.55;2.80;;;17.10;99.90;;;;;;5058244;28;20148;-69
2023/10/09 13:39:24;;;;;;;16.17;3.42;;;17.10;99.90;;;;;;5057475;28;20059;-68
2023/10/09 13:41:57;;;;;;;13.98;3.03;;;17.10;99.90;;;;;;5043780;28;20638;-69
2023/10/09 13:44:33;;;;;;;11.23;2.90;;;17.10;99.90;;;;;;5064713;28;20803;-68
2023/10/09 13:47:11;;;;;;;11.07;2.65;;;17.10;99.90;;;;;;5069392;28;20077;-68
2023/10/09 13:49:40;;;;;;;10.32;3.00;;;17.10;99.90;;;;;;5068101;28;20056;-69
2023/10/09 13:52:07;;;;;;;11.15;2.50;;;17.10;99.90;;;;;;5087101;27;20040;-69
2023/10/09 13:57:05;;;;;;;10.98;2.95;;;17.10;99.90;;;;;;5070191;28;20344;-69
2023/10/09 13:59:32;;;;;;;7.15;2.88;;;17.10;99.90;;;;;;5067379;28;20066;-68
2023/10/09 14:01:59;;;;;;;11.73;3.30;;;17.10;99.90;;;;;;5061382;28;20056;-69
2023/10/09 14:04:26;;;;;;;9.15;2.90;;;17.10;99.90;;;;;;5068747;28;20083;-70
2023/10/09 14:06:59;;;;;;;11.20;2.88;;;17.10;99.90;;;;;;5069476;28;20048;-69
2023/10/09 14:09:37;;;;;;;9.82;3.15;;;17.10;99.90;;;;;;5069520;28;20105;-68
2023/10/09 14:12:09;;;;;;;8.18;2.95;;;17.10;99.90;;;;;;5063427;28;20056;-68
2023/10/09 14:14:49;;;;;;;7.97;2.60;;;17.10;99.90;;;;;;5061865;28;20444;-68
2023/10/09 14:17:23;;;;;;;9.45;2.90;;;17.10;99.90;;;;;;5066423;28;20051;-68
2023/10/09 14:19:51;;;;;;;10.43;2.75;;;17.10;99.90;;;;;;5080225;28;20631;-69
2023/10/09 14:22:24;;;;;;;7.35;2.47;;;17.00;99.90;;;;;;5049689;28;20167;-69
2023/10/09 14:24:59;;;;;;;12.60;3.13;;;17.00;99.90;;;;;;5068021;28;20121;-68
2023/10/09 14:27:29;;;;;;;10.18;2.60;;;17.00;99.90;;;;;;5085249;28;20489;-68
2023/10/09 14:29:57;;;;;;;10.25;2.72;;;17.00;99.90;;;;;;5052287;28;20060;-68
2023/10/09 14:32:29;;;;;;;11.65;2.78;;;16.90;99.90;;;;;;5059463;28;20060;-68
2023/10/09 14:35:00;;;;;;;8.57;2.42;;;17.00;99.90;;;;;;5064275;28;20048;-66
2023/10/09 14:37:31;;;;;;;10.43;2.88;;;16.90;99.90;;;;;;5079789;28;20550;-66
2023/10/09 14:39:58;;;;;;;10.10;2.42;;;16.90;99.90;;;;;;5068398;28;20048;-66
2023/10/09 14:42:27;;;;;;;11.75;3.10;;;16.90;99.90;;;;;;5057068;28;20435;-66
2023/10/09 14:44:55;;;;;;;9.65;2.90;;;16.90;99.90;;;;;;5070183;28;20073;-66
2023/10/09 14:47:21;;;;;;;11.45;2.30;;;16.90;99.90;;;;;;5073326;28;20051;-65
2023/10/09 14:49:47;;;;;;;14.15;2.83;;;17.00;99.90;;;;;;5077520;28;20054;-66
2023/10/09 14:52:18;;;;;;;11.50;2.35;;;17.00;99.90;;;;;;5102042;27;20572;-66
2023/10/09 14:54:47;;;;;;;13.43;3.00;;;16.90;99.90;;;;;;5082661;28;20066;-66
2023/10/09 14:57:13;;;;;;;12.60;3.35;;;16.90;99.90;;;;;;5077213;28;20048;-66
2023/10/09 14:59:39;;;;;;;11.25;2.88;;;16.90;99.90;;;;;;5075534;28;20036;-66
2023/10/09 15:02:07;;;;;;;11.38;2.53;;;16.90;99.90;;;;;;5067927;28;20421;-69
2023/10/09 15:04:35;;;;;;;9.73;2.60;;;16.90;99.90;;;;;;5085080;27;20052;-69
2023/10/09 15:07:01;;;;;;;9.18;3.08;;;16.90;99.90;;;;;;5073204;28;20536;-68
2023/10/09 15:09:31;;;;;;;7.13;2.30;;;16.90;99.90;;;;;;5059431;28;20043;-68
2023/10/09 15:11:57;;;;;;;9.63;2.40;;;16.90;99.90;;;;;;5071886;28;20040;-68
2023/10/09 15:14:23;;;;;;;12.80;3.15;;;17.00;99.90;;;;;;5071243;28;20628;-69
2023/10/09 15:16:50;;;;;;;12.80;3.00;;;16.90;99.90;;;;;;5105777;27;20077;-69
2023/10/09 15:19:16;;;;;;;11.15;2.92;;;17.00;99.90;;;;;;5068884;28;20039;-68
2023/10/09 15:21:46;;;;;;;10.77;2.72;;;16.90;99.90;;;;;;5067062;28;20044;-69
2023/10/09 15:24:17;;;;;;;8.30;2.17;;;16.90;99.90;;;;;;5097968;27;20051;-69
2023/10/09 15:26:45;;;;;;;10.70;2.92;;;16.90;99.90;;;;;;5068037;28;20424;-70
2023/10/09 15:29:16;;;;;;;;;;;16.90;99.90;;;;;;5063919;28;20059;-69
2023/10/09 15:31:41;;;;;;;8.48;2.47;;;17.00;99.90;;;;;;5094141;27;19928;-68
2023/10/09 15:34:08;;;;;;;14.15;2.63;;;17.00;99.90;;;;;;5069608;28;20045;-68
2023/10/09 15:36:35;;;;;;;8.93;2.55;;;17.00;99.90;;;;;;5075516;28;20047;-69
2023/10/09 15:39:03;;;;;;;10.05;2.38;;;16.90;99.90;;;;;;5061474;28;20048;-69
2023/10/09 15:41:29;;;;;;;12.77;2.72;;;16.90;99.90;;;;;;5078399;28;20101;-69
2023/10/09 15:43:58;;;;;;;11.23;2.40;;;16.90;99.90;;;;;;5077081;28;20131;-69
2023/10/09 15:46:25;;;;;;;11.27;2.60;;;16.90;99.90;;;;;;5077626;28;20812;-69
2023/10/09 15:48:53;;;;;;;11.55;2.63;;;16.90;99.90;;;;;;5058660;28;20102;-69
2023/10/09 15:51:19;;;;;;;10.10;2.75;;;16.90;99.90;;;;;;5070968;28;20118;-69
2023/10/09 15:53:46;;;;;;;7.72;2.38;;;16.80;99.90;;;;;;5069709;28;20123;-69
2023/10/09 15:56:13;;;;;;;5.40;2.15;;;16.90;99.90;;;;;;5073507;28;20049;-69
2023/10/09 15:58:42;;;;;;;13.70;2.30;;;16.80;99.90;;;;;;5070680;28;20139;-69
2023/10/09 16:01:12;;;;;;;10.75;2.28;;;16.80;99.90;;;;;;5043251;28;20764;-70
2023/10/09 16:03:40;;;;;;;11.13;2.25;;;16.80;99.90;;;;;;5048611;28;20040;-69
2023/10/09 16:06:09;;;;;;;8.02;1.85;;;16.90;99.90;;;;;;5046485;28;20036;-67
2023/10/09 16:08:36;;;;;;;7.82;1.80;;;16.80;99.90;;;;;;5090577;27;20102;-66
2023/10/09 16:11:02;;;;;;;8.05;1.88;;;16.80;99.90;;;;;;5048801;28;20400;-66
2023/10/09 16:13:28;;;;;;;8.85;2.30;;;16.80;99.90;;;;;;5055623;28;20044;-66